Latest Weather Observations for Geelong Racecourse

IDV60801

Issued at 1:02 pm EDT Tuesday 28 March 2017 (issued every 30 minutes, with the page automatically refreshed every 10 minutes)

About weather observations | Map of weather stations | Latest weather observations for VIC | Other Formats
Station Details ID: 087184 Name: GEELONG RACECOURSE Lat: -38.17 Lon: 144.38 Height: 12.9 m
Data from the previous 72 hours. | See also: Recent months at Geelong Racecourse
Date/Time
EDT
Temp
°C
App
Temp
°C
Dew
Point
°C
Rel
Hum
%
Delta-T
°C
Wind Press
QNH
hPa
Press
MSL
hPa
Rain since
9am
mm
Dir  Spd
km/h
Gust
km/h
Spd
kts
Gust
kts
28/12:30pm 20.5 18.1 11.4 56 5.0 WNW 15 24 8 13 1013.6 1013.6 0.0
28/12:00pm 20.4 17.0 11.3 56 5.0 WNW 20 33 11 18 1014.0 1014.0 0.0
28/11:30am 19.8 18.1 12.3 62 4.2 WNW 13 24 7 13 1014.3 1014.3 0.0
28/11:00am 19.0 17.9 13.2 69 3.3 NW 11 24 6 13 1014.5 1014.5 0.0
28/10:30am 17.8 16.7 13.1 74 2.6 NW 11 19 6 10 1014.5 1014.5 0.0
28/10:00am 16.6 15.7 12.6 77 2.2 NW 9 15 5 8 1014.5 1014.5 0.0
28/09:30am 15.6 15.2 12.5 82 1.7 NW 6 9 3 5 1014.4 1014.4 0.0
28/09:00am 14.8 14.3 12.7 87 1.2 NW 7 11 4 6 1014.4 1014.4 2.4
28/08:30am 13.6 13.2 12.3 92 0.7 NW 6 9 3 5 1014.3 1014.3 2.4
28/08:00am 12.8 12.0 11.7 93 0.6 NW 7 9 4 5 1014.1 1014.1 2.4
28/07:30am 12.3 11.9 11.2 93 0.6 NW 4 7 2 4 1014.0 1014.0 2.4
28/07:00am 12.5 11.8 11.4 93 0.6 NW 6 7 3 4 1013.8 1013.8 2.4
28/06:30am 12.9 12.1 11.6 92 0.7 NW 7 11 4 6 1013.7 1013.7 2.4
28/06:00am 13.0 12.2 11.7 92 0.7 NW 7 11 4 6 1013.6 1013.6 2.4
28/05:30am 12.9 12.1 11.6 92 0.7 NW 7 13 4 7 1013.4 1013.4 2.4
28/05:00am 12.6 11.7 11.3 92 0.7 NNW 7 9 4 5 1013.3 1013.3 2.4
28/04:30am 12.9 12.1 11.6 92 0.7 NW 7 11 4 6 1013.2 1013.2 2.4
28/04:00am 12.7 11.8 11.4 92 0.7 NNW 7 9 4 5 1013.2 1013.2 2.4
28/03:30am 13.2 12.1 11.9 92 0.7 NW 9 11 5 6 1013.3 1013.3 2.4
28/03:00am 13.2 12.4 11.8 91 0.7 N 7 9 4 5 1013.4 1013.4 2.4
28/02:30am 13.7 12.9 11.6 87 1.1 NNW 7 11 4 6 1013.4 1013.4 2.4
28/02:00am 13.6 12.8 11.7 88 1.0 NNW 7 9 4 5 1013.3 1013.3 2.4
28/01:30am 14.0 13.1 11.5 85 1.3 N 7 11 4 6 1013.4 1013.4 2.4
28/01:00am 13.5 12.6 11.4 87 1.1 NNW 7 11 4 6 1013.4 1013.4 2.4
28/12:30am 14.0 13.0 10.4 79 1.9 NW 6 7 3 4 1013.5 1013.5 2.4
28/12:00am 14.9 14.6 10.1 73 2.5 WNW 2 4 1 2 1013.7 1013.7 2.4
 
Date/Time
EDT
Temp
°C
App
Temp
°C
Dew
Point
°C
Rel
Hum
%
Delta-T
°C
Wind Press
QNH
hPa
Press
MSL
hPa
Rain since
9am
mm
Dir  Spd
km/h
Gust
km/h
Spd
kts
Gust
kts
27/11:30pm 15.2 13.5 10.0 71 2.7 W 9 15 5 8 1013.8 1013.8 2.4
27/11:00pm 15.6 13.9 9.9 69 3.0 W 9 15 5 8 1013.6 1013.6 2.4
27/10:30pm 16.5 14.4 9.9 65 3.5 W 11 17 6 9 1013.3 1013.3 2.4
27/10:00pm 16.1 14.5 10.2 68 3.1 WSW 9 17 5 9 1013.2 1013.2 2.4
27/09:30pm 15.8 14.8 10.3 70 2.9 WSW 6 11 3 6 1012.9 1012.9 2.4
27/09:00pm 16.4 14.4 10.3 67 3.2 SW 11 17 6 9 1012.5 1012.5 2.4
27/08:30pm 16.5 15.2 10.1 66 3.4 WSW 7 9 4 5 1012.0 1012.0 2.4
27/08:00pm 17.2 15.2 10.1 63 3.8 WSW 11 13 6 7 1011.7 1011.7 2.4
27/07:30pm 17.7 15.8 10.6 63 3.8 SW 11 15 6 8 1011.4 1011.4 2.4
27/07:00pm 19.0 18.2 11.6 62 4.1 WNW 7 13 4 7 1010.8 1010.8 2.4
27/06:30pm 19.1 16.7 11.4 61 4.2 WNW 15 28 8 15 1010.6 1010.6 2.4
27/06:00pm 19.5 15.4 11.5 60 4.4 WNW 24 39 13 21 1010.6 1010.6 2.4
27/05:30pm 19.4 14.9 11.4 60 4.4 WNW 26 41 14 22 1010.7 1010.7 2.4
27/05:00pm 19.0 16.0 12.7 67 3.5 WNW 20 32 11 17 1010.2 1010.2 2.4
27/04:30pm 17.9 14.3 13.2 74 2.6 WNW 24 33 13 18 1010.3 1010.3 2.4
27/04:00pm 16.1 13.4 13.6 85 1.4 WNW 20 30 11 16 1010.6 1010.6 2.4
27/03:30pm 15.2 11.8 13.6 90 0.9 WNW 24 41 13 22 1010.3 1010.3 2.4
27/03:01pm 17.1 13.7 15.8 92 0.8 W 28 48 15 26 1010.2 1010.2 1.8
27/03:00pm 17.1 13.7 15.8 92 0.8 W 28 44 15 24 1010.0 1010.0 1.8
27/02:49pm 17.0 12.9 16.0 94 0.6 W 32 52 17 28 1009.5 1009.5 1.8
27/02:30pm 16.7 12.0 15.9 95 0.5 W 35 52 19 28 1009.1 1009.1 1.4
27/02:00pm 18.9 11.8 13.3 70 3.2 W 43 67 23 36 1008.3 1008.3 0.0
27/01:30pm 20.7 14.8 14.8 69 3.5 WSW 39 59 21 32 1007.8 1007.8 0.0
27/01:00pm 24.2 18.2 15.4 58 5.3 WSW 41 63 22 34 1007.3 1007.3 0.0
27/12:57pm 24.2 17.7 15.1 56 5.4 W 43 69 23 37 1007.1 1007.1 0.0
27/12:30pm 26.8 20.9 16.7 54 6.3 WNW 43 72 23 39 1005.1 1005.1 0.0
27/12:26pm 29.9 23.7 16.0 43 8.6 WNW 43 67 23 36 1004.4 1004.4 0.0
27/12:00pm 32.8 27.4 14.9 34 11.1 NW 37 65 20 35 1003.4 1003.4 0.0
27/11:30am 33.3 26.5 14.4 32 11.6 NNW 43 63 23 34 1002.4 1002.4 0.0
27/11:26am 33.6 28.1 14.6 31 11.7 NNW 37 61 20 33 1002.2 1002.2 0.0
27/11:00am 33.1 27.2 14.7 33 11.4 N 39 61 21 33 1001.5 1001.5 0.0
27/10:53am 33.0 28.9 15.0 33 11.1 N 30 50 16 27 1001.6 1001.6 0.0
27/10:30am 30.1 28.3 16.1 42 8.7 NNE 20 35 11 19 1002.4 1002.4 0.0
27/10:00am 29.4 26.5 15.1 41 8.8 NNE 24 35 13 19 1002.4 1002.4 0.0
27/09:30am 26.4 25.9 16.9 56 5.9 NNE 15 22 8 12 1002.9 1002.9 0.0
27/09:00am 23.6 23.2 17.1 67 4.0 ENE 15 20 8 11 1003.1 1003.1 0.0
27/08:30am 23.6 22.4 15.1 59 5.1 NE 15 20 8 11 1003.3 1003.3 0.0
27/08:00am 24.0 22.9 14.4 55 5.7 NE 13 20 7 11 1003.5 1003.5 0.0
27/07:30am 22.8 22.1 15.4 63 4.4 NE 13 19 7 10 1003.9 1003.9 0.0
27/07:00am 22.9 22.1 15.2 62 4.6 NNE 13 19 7 10 1004.1 1004.1 0.0
27/06:30am 21.5 21.5 16.2 72 3.2 NE 11 15 6 8 1004.1 1004.1 0.0
27/06:00am 21.3 21.6 16.9 76 2.7 NE 11 15 6 8 1004.6 1004.6 0.0
27/05:30am 20.6 22.1 18.9 90 1.1 NE 9 15 5 8 1004.9 1004.9 0.0
27/05:00am 20.0 21.8 18.7 92 0.8 NE 7 9 4 5 1005.3 1005.3 0.0
27/04:30am 20.3 21.8 19.0 92 0.8 ENE 9 9 5 5 1005.8 1005.8 0.0
27/04:00am 20.5 23.1 19.3 93 0.8 NNE 4 11 2 6 1006.3 1006.3 0.0
27/03:30am 20.4 22.0 19.2 93 0.8 NE 9 15 5 8 1006.4 1006.4 0.0
27/03:00am 20.1 22.1 19.1 94 0.6 NE 7 13 4 7 1007.0 1007.0 0.0
27/02:30am 19.7 21.1 18.7 94 0.6 NNE 9 17 5 9 1007.5 1007.5 0.0
27/02:00am 19.7 21.1 18.7 94 0.6 NNE 9 13 5 7 1008.1 1008.1 0.0
27/01:30am 19.9 21.4 18.9 94 0.6 NNE 9 13 5 7 1008.5 1008.5 0.0
27/01:00am 19.7 21.1 18.7 94 0.6 N 9 13 5 7 1009.4 1009.4 0.0
27/12:30am 19.8 21.3 19.0 95 0.5 NNE 9 13 5 7 1009.6 1009.6 0.0
27/12:00am 19.1 20.9 18.3 95 0.5 NNE 6 7 3 4 1010.1 1010.1 0.0
 
Date/Time
EDT
Temp
°C
App
Temp
°C
Dew
Point
°C
Rel
Hum
%
Delta-T
°C
Wind Press
QNH
hPa
Press
MSL
hPa
Rain since
9am
mm
Dir  Spd
km/h
Gust
km/h
Spd
kts
Gust
kts
26/11:30pm 18.7 20.8 18.0 96 0.4 NNE 4 6 2 3 1010.8 1010.8 0.0
26/11:00pm 17.4 19.6 16.6 95 0.5 CALM 0 4 0 2 1011.1 1011.1 0.0
26/10:30pm 17.2 19.4 16.4 95 0.5 CALM 0 0 0 0 1011.6 1011.6 0.0
26/10:00pm 17.3 19.5 16.5 95 0.5 CALM 0 0 0 0 1011.7 1011.7 0.0
26/09:30pm 17.4 19.2 16.4 94 0.6 W 2 2 1 1 1011.9 1011.9 0.0
26/09:00pm 17.6 19.5 16.6 94 0.6 S 2 6 1 3 1012.1 1012.1 0.0
26/08:30pm 18.3 19.7 17.3 94 0.6 SSE 6 7 3 4 1012.0 1012.0 0.0
26/08:00pm 18.8 20.1 17.6 93 0.7 SSE 7 9 4 5 1012.2 1012.2 0.0
26/07:30pm 19.4 20.2 18.1 92 0.8 SSE 11 17 6 9 1011.8 1011.8 0.0
26/07:00pm 20.0 20.9 18.5 91 0.9 SE 11 19 6 10 1012.0 1012.0 0.0
26/06:30pm 21.0 21.3 18.0 83 1.9 SSE 13 17 7 9 1012.0 1012.0 0.0
26/06:00pm 21.8 22.1 18.0 79 2.4 SSE 13 17 7 9 1012.0 1012.0 0.0
26/05:30pm 22.3 22.7 18.1 77 2.6 S 13 17 7 9 1011.9 1011.9 0.0
26/05:00pm 22.6 22.9 17.9 75 2.9 S 13 20 7 11 1012.1 1012.1 0.0
26/04:30pm 23.0 23.6 18.5 76 2.8 S 13 20 7 11 1012.2 1012.2 0.0
26/04:00pm 23.6 25.9 18.5 73 3.2 E 4 9 2 5 1012.2 1012.2 0.0
26/03:30pm 23.1 25.2 18.2 74 3.1 SSW 4 9 2 5 1012.4 1012.4 0.0
26/03:00pm 22.6 24.2 17.9 75 2.9 E 6 11 3 6 1012.7 1012.7 0.0
26/02:30pm 21.8 23.5 18.0 79 2.4 E 6 9 3 5 1013.2 1013.2 0.0
26/02:00pm 22.1 24.7 18.5 80 2.3 E 2 9 1 5 1013.7 1013.7 0.0
26/01:30pm 21.5 23.5 17.9 80 2.2 E 4 7 2 4 1014.2 1014.2 0.0
26/01:00pm 21.0 22.9 18.6 86 1.5 NNE 6 9 3 5 1014.6 1014.6 0.0
26/12:30pm 20.9 22.9 18.7 87 1.4 NE 6 11 3 6 1014.9 1014.9 0.0
26/12:00pm 20.6 22.8 18.4 87 1.4 ESE 4 6 2 3 1015.3 1015.3 0.0
26/11:30am 20.3 22.1 18.8 91 0.9 SE 7 9 4 5 1015.6 1015.6 0.0
26/11:00am 20.1 22.1 18.8 92 0.8 SE 6 7 3 4 1015.8 1015.8 0.0
26/10:30am 19.9 21.6 18.6 92 0.8 SSE 7 9 4 5 1016.0 1016.0 0.0
26/10:00am 19.3 20.8 18.0 92 0.8 SE 7 11 4 6 1015.9 1015.9 0.0
26/09:30am 18.9 20.4 17.7 93 0.7 SE 6 7 3 4 1015.7 1015.7 0.0
26/09:00am 18.7 20.6 17.7 94 0.6 SE 4 6 2 3 1015.4 1015.4 0.0
26/08:30am 18.5 20.0 17.5 94 0.6 SE 6 7 3 4 1015.0 1015.0 0.0
26/08:00am 18.5 20.3 17.5 94 0.6 S 4 6 2 3 1014.9 1014.9 0.0
26/07:30am 18.5 20.3 17.5 94 0.6 SSE 4 6 2 3 1014.6 1014.6 0.0
26/07:00am 18.6 20.5 17.6 94 0.6 SSE 4 6 2 3 1014.5 1014.5 0.0
26/06:30am 18.6 20.4 17.4 93 0.7 SSE 4 6 2 3 1014.1 1014.1 0.0
26/06:00am 18.5 20.3 17.3 93 0.7 SSE 4 6 2 3 1014.1 1014.1 0.0
26/05:30am 18.7 21.3 17.5 93 0.7 CALM 0 2 0 1 1013.9 1013.9 0.0
26/05:00am 18.7 21.3 17.5 93 0.7 CALM 0 0 0 0 1014.1 1014.1 0.0
26/04:30am 18.5 21.0 17.3 93 0.7 CALM 0 0 0 0 1013.7 1013.7 0.0
26/04:00am 18.6 20.8 17.4 93 0.7 W 2 2 1 1 1014.0 1014.0 0.0
26/03:30am 18.5 19.8 17.5 94 0.6 SSW 7 9 4 5 1014.1 1014.1 0.0
26/03:00am 18.2 20.0 17.4 95 0.5 SW 4 6 2 3 1014.1 1014.1 0.0
26/02:30am 18.0 20.1 17.2 95 0.5 W 2 4 1 2 1014.5 1014.5 0.0
26/02:00am 17.9 19.0 17.1 95 0.5 SW 7 7 4 4 1014.5 1014.5 0.0
26/01:30am 17.9 19.0 17.1 95 0.5 SW 7 11 4 6 1014.8 1014.8 0.0
26/01:00am 18.3 19.1 17.3 94 0.6 SW 9 13 5 7 1014.7 1014.7 0.0
26/12:30am 18.4 20.2 17.4 94 0.6 W 4 6 2 3 1014.8 1014.8 0.0
26/12:00am 18.6 20.9 17.6 94 0.6 SW 2 4 1 2 1014.8 1014.8 0.0
 
Date/Time
EDT
Temp
°C
App
Temp
°C
Dew
Point
°C
Rel
Hum
%
Delta-T
°C
Wind Press
QNH
hPa
Press
MSL
hPa
Rain since
9am
mm
Dir  Spd
km/h
Gust
km/h
Spd
kts
Gust
kts
25/11:30pm 18.6 20.9 17.6 94 0.6 SSW 2 4 1 2 1014.7 1014.7 0.0
25/11:00pm 18.4 19.6 17.4 94 0.6 SSW 7 13 4 7 1014.5 1014.5 0.0
25/10:30pm 18.7 18.5 17.7 94 0.6 SSW 15 22 8 12 1014.1 1014.1 0.0
25/10:00pm 18.7 18.5 17.7 94 0.6 SSW 15 22 8 12 1014.1 1014.1 0.0
25/09:30pm 19.0 18.0 18.0 94 0.6 SSW 20 28 11 15 1013.5 1013.5 0.0
25/09:00pm 19.5 18.8 18.3 93 0.7 SSW 19 28 10 15 1013.3 1013.3 0.0
25/08:30pm 20.2 19.8 18.9 92 0.8 SSW 19 28 10 15 1012.9 1012.9 0.0
25/08:00pm 21.6 20.0 16.6 73 3.0 S 20 32 11 17 1012.3 1012.3 0.0
25/07:30pm 22.4 21.4 15.5 65 4.1 S 15 19 8 10 1011.7 1011.7 0.0
25/07:00pm 23.0 21.9 15.3 62 4.6 S 15 19 8 10 1011.4 1011.4 0.0
25/06:30pm 23.5 22.5 15.5 60 4.8 S 15 22 8 12 1011.1 1011.1 0.0
25/06:00pm 24.6 23.3 15.8 58 5.3 SSE 17 24 9 13 1010.8 1010.8 0.0
25/05:30pm 25.9 24.9 16.7 57 5.7 S 17 22 9 12 1010.4 1010.4 0.0
25/05:00pm 26.9 25.7 16.2 52 6.6 S 17 22 9 12 1010.1 1010.1 0.0
25/04:30pm 27.4 26.8 16.7 52 6.7 S 15 19 8 10 1010.0 1010.0 0.0
25/04:00pm 27.9 28.4 16.5 50 7.1 ESE 9 15 5 8 1010.0 1010.0 0.0
25/03:30pm 27.8 28.0 16.7 50 6.9 SE 11 17 6 9 1009.9 1009.9 0.0
25/03:00pm 27.9 28.4 16.5 50 7.1 ESE 9 19 5 10 1010.1 1010.1 0.0
25/02:30pm 28.4 30.1 18.5 55 6.3 NE 7 11 4 6 1010.3 1010.3 0.0
25/02:00pm 26.8 27.7 17.6 57 5.8 NE 9 13 5 7 1010.5 1010.5 0.0
25/01:30pm 28.3 29.6 17.5 52 6.8 NNE 7 13 4 7 1010.7 1010.7 0.0

Other Formats:

Comma delimited format used in spreadsheet applications
http://www.bom.gov.au/fwo/IDV60801/IDV60801.94857.axf

JavaScript Object Notation format (JSON) in row-major order
http://www.bom.gov.au/fwo/IDV60801/IDV60801.94857.json